Middlefield, Connecticut
Current Conditions -  °F | °C
As of 1:53 AM on Thursday 23 Oct 2014 (Local Time) from KMMK Reporting Station
Overcast Overcast  
Wind Chill: 50°   Ceiling: 1600
Heat Index: 50°   Visibility: 10mi
Dew Point: 46°   Wind: 14mph
Humidity: 86%   Direction: 10°N
Pressure: 29.75"   Gusts: 22mph
Location:  41.52°N, 72.71°W
Report Text: KMMK 230553Z AUTO 01012G19KT 10SM OVC016 10/08 A2975 RMK AO2 RAB01E43 SLP072 P0000 60053 T01000078 10100 20094 58017 TSNO
Loading
Personal Weather Stations






























Interactive Weather Map
Tropical Storm Tracking
New forecast layout! Learn more

10-Day Weather Forecast

Advertisements
Track Severe Weather on mobile